Time;durP1;ratioP1;P1;durP2;ratioP2;P2;SDS_P1;SDS_P2;PMS_P1;PMS_P2;Temp;Humidity;BMP_temperature;BMP_pressure;BME280_temperature;BME280_humidity;BME280_pressure;Samples;Min_cycle;Max_cycle;Signal;HPM_P1;HPM_P2
2023/04/03 00:04:56;;;;;;;2.70;2.00;;;;;;;5.53;66.44;99315.07;223719;183;147465;-79
2023/04/03 00:10:00;;;;;;;2.30;2.10;;;;;;;5.47;66.64;99318.43;223769;183;139330;-78
2023/04/03 00:15:04;;;;;;;2.80;1.90;;;;;;;5.43;67.02;99318.26;223764;183;136744;-79
2023/04/03 00:20:08;;;;;;;2.40;2.00;;;;;;;5.38;67.07;99319.48;222299;183;148169;-77
2023/04/03 00:25:12;;;;;;;2.90;2.10;;;;;;;5.32;66.95;99319.17;223453;183;138919;-80
2023/04/03 00:30:24;;;;;;;2.80;2.00;;;;;;;5.25;66.68;99317.33;222098;183;136489;-79
2023/04/03 00:35:30;;;;;;;3.60;2.20;;;;;;;5.18;66.81;99320.39;223495;183;147229;-76
2023/04/03 00:40:41;;;;;;;2.70;2.10;;;;;;;5.17;66.87;99323.74;223656;183;138187;-77
2023/04/03 00:45:47;;;;;;;3.10;2.30;;;;;;;5.18;66.81;99330.76;223775;183;137254;-76
2023/04/03 00:50:52;;;;;;;3.00;2.20;;;;;;;5.13;66.84;99332.00;223633;183;147747;-77
2023/04/03 00:55:56;;;;;;;2.80;1.90;;;;;;;5.02;66.73;99334.30;223727;183;140216;-77
2023/04/03 01:01:04;;;;;;;2.30;2.10;;;;;;;4.91;66.84;99337.67;223771;183;138720;-77
2023/04/03 01:06:16;;;;;;;2.40;1.80;;;;;;;4.80;67.20;99338.92;223728;183;148163;-76
2023/04/03 01:11:21;;;;;;;2.80;2.30;;;;;;;4.72;67.40;99340.43;223649;184;138638;-77
2023/04/03 01:16:25;;;;;;;2.00;1.80;;;;;;;4.64;67.68;99343.67;223654;183;136478;-76
2023/04/03 01:22:02;;;;;;;2.30;1.70;;;;;;;4.60;67.76;99344.69;223734;183;147239;-76
2023/04/03 01:27:09;;;;;;;2.70;1.80;;;;;;;4.60;67.76;99348.41;223218;182;139152;-77
2023/04/03 01:32:12;;;;;;;2.10;1.70;;;;;;;4.61;67.96;99352.05;221740;183;137408;-78
2023/04/03 01:37:17;;;;;;;1.90;1.50;;;;;;;4.68;68.11;99355.67;222144;183;147140;-78
2023/04/03 01:42:21;;;;;;;2.30;1.70;;;;;;;4.74;67.93;99356.17;223790;183;138094;-79
2023/04/03 01:47:25;;;;;;;2.70;2.00;;;;;;;4.73;67.92;99358.15;223783;183;136369;-78
2023/04/03 01:52:28;;;;;;;2.90;2.10;;;;;;;4.72;67.90;99365.92;223798;183;147414;-79
2023/04/03 01:57:32;;;;;;;2.10;1.80;;;;;;;4.70;67.91;99370.73;223789;183;138416;-79
2023/04/03 02:02:36;;;;;;;2.80;1.90;;;;;;;4.65;68.02;99367.38;223800;183;136932;-76
2023/04/03 02:07:39;;;;;;;3.60;1.90;;;;;;;4.64;68.05;99369.68;221551;183;147536;-76
2023/04/03 02:12:43;;;;;;;2.80;2.10;;;;;;;4.62;68.23;99370.29;223932;183;138443;-75
2023/04/03 02:17:47;;;;;;;2.70;1.90;;;;;;;4.61;68.17;99374.70;223828;183;136819;-76
2023/04/03 02:22:50;;;;;;;2.50;1.70;;;;;;;4.56;68.33;99375.73;219112;183;147203;-76
2023/04/03 02:27:53;;;;;;;1.70;1.60;;;;;;;4.54;68.15;99374.96;223685;183;138102;-77
2023/04/03 02:32:56;;;;;;;2.50;1.80;;;;;;;4.52;68.32;99379.71;223777;183;137104;-76
2023/04/03 02:38:00;;;;;;;2.00;1.70;;;;;;;4.60;68.33;99380.02;223792;183;147093;-77
2023/04/03 02:43:04;;;;;;;2.50;1.60;;;;;;;4.64;68.09;99381.98;223838;183;138628;-76
2023/04/03 02:48:10;;;;;;;2.00;1.70;;;;;;;4.59;68.14;99388.48;223507;183;136437;-76
2023/04/03 02:53:15;;;;;;;1.90;1.50;;;;;;;4.49;68.01;99392.14;223658;183;147425;-76
2023/04/03 02:58:18;;;;;;;1.60;1.30;;;;;;;4.43;68.30;99399.69;223385;182;138978;-76
2023/04/03 03:03:22;;;;;;;1.80;1.30;;;;;;;4.37;68.46;99402.17;223837;182;136881;-80
2023/04/03 03:08:26;;;;;;;2.20;1.50;;;;;;;4.33;68.42;99402.81;223583;183;147580;-68
2023/04/03 03:13:30;;;;;;;16.40;11.40;;;;;;;4.41;69.88;99401.86;223912;183;138600;-77
2023/04/03 03:18:34;;;;;;;221.90;158.10;;;;;;;4.45;68.52;99401.23;223938;183;137129;-78
2023/04/03 03:23:38;;;;;;;3.30;2.00;;;;;;;4.45;68.70;99404.55;223728;184;147628;-73
2023/04/03 03:28:41;;;;;;;2.00;1.40;;;;;;;4.47;68.33;99400.98;223770;183;138324;-75
2023/04/03 03:33:46;;;;;;;2.50;1.50;;;;;;;4.47;68.27;99405.36;221894;183;137670;-79
2023/04/03 03:38:50;;;;;;;3.20;1.40;;;;;;;4.45;68.14;99408.60;223827;183;147488;-77
2023/04/03 03:43:53;;;;;;;1.80;1.30;;;;;;;4.42;68.03;99410.79;223774;183;138433;-78
2023/04/03 03:48:57;;;;;;;2.20;1.50;;;;;;;4.33;67.92;99414.77;223771;183;136735;-78
2023/04/03 03:54:01;;;;;;;1.90;1.40;;;;;;;4.33;68.13;99423.38;220042;183;147943;-79
2023/04/03 03:59:05;;;;;;;1.80;1.30;;;;;;;4.29;68.05;99427.71;223659;183;138244;-77
2023/04/03 04:04:08;;;;;;;147.70;101.80;;;;;;;4.25;68.36;99430.44;222049;183;136620;-79
2023/04/03 04:09:13;;;;;;;6.30;4.80;;;;;;;4.29;68.26;99430.36;223793;183;147109;-78
2023/04/03 04:14:16;;;;;;;4.60;2.30;;;;;;;4.20;67.85;99436.08;223538;183;138518;-79
2023/04/03 04:19:35;;;;;;;2.20;1.30;;;;;;;4.05;67.97;99442.98;222411;183;136536;-78
2023/04/03 04:24:39;;;;;;;2.10;1.40;;;;;;;4.00;68.46;99444.71;223870;182;147180;-78
2023/04/03 04:29:43;;;;;;;80.90;52.80;;;;;;;4.09;68.81;99449.73;223726;183;138876;-77
2023/04/03 04:34:46;;;;;;;3.30;2.00;;;;;;;4.21;68.15;99448.84;223722;183;138045;-80
2023/04/03 04:39:50;;;;;;;3.00;1.90;;;;;;;4.21;67.76;99456.04;223786;182;147961;-83
2023/04/03 04:44:54;;;;;;;2.10;1.50;;;;;;;4.16;67.39;99466.40;222683;183;137694;-81
2023/04/03 04:49:57;;;;;;;3.00;1.90;;;;;;;4.09;67.64;99471.68;223616;183;137042;-81
2023/04/03 04:55:01;;;;;;;2.50;1.70;;;;;;;4.01;67.64;99469.98;222721;183;148537;-81
2023/04/03 05:00:05;;;;;;;4.50;1.90;;;;;;;3.88;67.74;99473.31;223626;183;138790;-81
2023/04/03 05:05:09;;;;;;;2.40;1.50;;;;;;;3.83;67.88;99475.90;221344;183;136758;-83
2023/04/03 05:10:13;;;;;;;2.40;1.40;;;;;;;3.84;68.14;99485.38;221702;183;148099;-81
2023/04/03 05:15:17;;;;;;;3.60;1.80;;;;;;;3.84;68.13;99490.29;223710;183;138816;-82
2023/04/03 05:20:21;;;;;;;2.90;1.90;;;;;;;3.87;68.27;99497.05;223798;184;137669;-82
2023/04/03 05:25:25;;;;;;;3.80;1.80;;;;;;;3.96;68.18;99503.30;223815;183;147516;-82
2023/04/03 05:30:30;;;;;;;2.60;2.00;;;;;;;4.07;68.08;99500.88;223763;184;138509;-82
2023/04/03 05:35:38;;;;;;;2.90;2.00;;;;;;;4.02;67.45;99505.58;220702;183;137074;-82
2023/04/03 05:40:44;;;;;;;4.00;1.80;;;;;;;4.01;67.45;99513.68;223748;183;147616;-82
2023/04/03 05:45:47;;;;;;;3.50;2.10;;;;;;;4.07;67.39;99515.27;223938;183;138935;-82
2023/04/03 05:50:52;;;;;;;3.50;2.20;;;;;;;4.09;66.93;99516.27;220868;183;136758;-82
2023/04/03 05:56:01;;;;;;;4.30;2.40;;;;;;;4.06;66.89;99521.98;223811;183;149686;-81
2023/04/03 06:01:06;;;;;;;4.40;2.20;;;;;;;4.03;66.85;99524.84;223787;183;138696;-82
2023/04/03 06:06:14;;;;;;;4.30;2.10;;;;;;;4.02;66.58;99527.36;223585;183;136685;-82
2023/04/03 06:11:17;;;;;;;5.30;2.10;;;;;;;3.92;66.23;99533.42;221862;183;147499;-81
2023/04/03 06:16:20;;;;;;;3.80;2.30;;;;;;;3.87;66.31;99536.71;223702;183;138551;-74
2023/04/03 06:21:24;;;;;;;4.10;2.10;;;;;;;3.83;66.03;99538.21;223303;183;136571;-73
2023/04/03 06:26:28;;;;;;;5.50;2.20;;;;;;;3.82;66.09;99542.63;222490;184;147377;-74
2023/04/03 06:31:31;;;;;;;5.80;2.90;;;;;;;3.85;65.60;99543.93;220870;183;138709;-75
2023/04/03 06:36:35;;;;;;;4.40;2.30;;;;;;;3.93;65.42;99552.16;223856;183;137426;-74
2023/04/03 06:41:38;;;;;;;4.40;2.00;;;;;;;3.97;65.07;99561.19;223741;183;147882;-73
2023/04/03 06:46:44;;;;;;;5.40;2.20;;;;;;;3.98;64.47;99563.27;223782;182;139235;-74
2023/04/03 06:51:48;;;;;;;;;;;;;;;4.02;63.88;99564.02;223817;183;139205;-75
2023/04/03 06:56:51;;;;;;;6.30;2.40;;;;;;;4.03;63.97;99567.34;221549;183;146795;-74
2023/04/03 07:01:55;;;;;;;4.80;2.10;;;;;;;4.05;64.05;99572.40;223557;183;139219;-73
2023/04/03 07:06:58;;;;;;;3.70;2.30;;;;;;;4.05;63.99;99572.91;223056;183;139104;-72
2023/04/03 07:12:02;;;;;;;3.90;2.10;;;;;;;4.11;64.04;99572.05;223660;183;148685;-74
2023/04/03 07:17:06;;;;;;;7.80;3.60;;;;;;;4.18;64.06;99578.55;223728;183;140831;-73
2023/04/03 07:22:10;;;;;;;3.70;2.20;;;;;;;4.21;63.46;99582.48;223851;183;136934;-74
2023/04/03 07:27:14;;;;;;;5.20;2.30;;;;;;;4.24;62.34;99583.09;223777;183;146887;-73
2023/04/03 07:32:17;;;;;;;6.40;2.70;;;;;;;4.37;62.70;99593.27;223876;181;138563;-73
2023/04/03 07:37:20;;;;;;;4.20;2.10;;;;;;;4.53;62.56;99599.69;220202;181;136941;-72
2023/04/03 07:42:27;;;;;;;3.70;2.10;;;;;;;4.61;62.26;99607.37;220615;182;147570;-75
2023/04/03 07:47:31;;;;;;;3.30;2.00;;;;;;;4.71;61.83;99615.15;223887;182;137669;-75
2023/04/03 07:52:34;;;;;;;3.80;2.10;;;;;;;4.72;61.26;99617.23;223703;182;137117;-76
2023/04/03 07:57:38;;;;;;;3.60;1.90;;;;;;;4.74;60.27;99614.89;219248;182;147540;-74
2023/04/03 08:02:41;;;;;;;3.00;1.90;;;;;;;4.82;60.99;99618.70;223981;181;138164;-74
2023/04/03 08:07:45;;;;;;;3.10;1.90;;;;;;;4.92;60.59;99620.68;223932;182;137515;-74
2023/04/03 08:12:49;;;;;;;2.70;1.60;;;;;;;5.00;60.36;99623.10;223913;182;145988;-74
2023/04/03 08:17:53;;;;;;;4.50;1.90;;;;;;;5.01;59.21;99624.48;222195;183;138221;-74
2023/04/03 08:22:56;;;;;;;5.60;1.90;;;;;;;5.05;59.23;99623.64;222159;182;137252;-75
2023/04/03 08:27:59;;;;;;;7.90;2.60;;;;;;;5.08;59.43;99627.05;223481;181;147136;-74
2023/04/03 08:33:03;;;;;;;8.80;3.30;;;;;;;5.10;59.29;99632.84;221079;181;137775;-75
2023/04/03 08:38:08;;;;;;;4.30;1.90;;;;;;;5.09;58.87;99642.00;221973;181;136877;-81
2023/04/03 08:43:34;;;;;;;3.80;2.00;;;;;;;5.08;59.08;99646.25;223976;182;147119;-79
2023/04/03 08:48:43;;;;;;;5.90;2.00;;;;;;;5.06;58.99;99651.06;223740;183;138088;-80
2023/04/03 08:54:00;;;;;;;114.30;63.80;;;;;;;5.13;59.18;99656.14;223490;182;137568;-83
2023/04/03 08:59:10;;;;;;;8.90;4.20;;;;;;;5.23;58.11;99659.52;223683;182;147674;-79
2023/04/03 09:04:16;;;;;;;7.40;3.20;;;;;;;5.22;57.83;99655.86;223705;182;138815;-79
2023/04/03 09:09:41;;;;;;;4.30;2.00;;;;;;;5.10;57.48;99667.99;223721;182;137067;-78
2023/04/03 09:15:03;;;;;;;6.90;2.40;;;;;;;4.98;58.24;99671.33;223707;182;147028;-77
2023/04/03 09:20:29;;;;;;;5.40;1.90;;;;;;;4.97;57.84;99675.58;223831;182;138763;-77
2023/04/03 09:25:37;;;;;;;3.80;2.30;;;;;;;4.95;57.94;99682.85;223660;182;137721;-77
2023/04/03 09:30:41;;;;;;;5.10;2.00;;;;;;;4.91;58.37;99688.59;223764;183;147309;-78
2023/04/03 09:35:45;;;;;;;4.80;1.90;;;;;;;4.90;58.08;99695.66;223780;182;138384;-78
2023/04/03 09:41:06;;;;;;;179.20;110.20;;;;;;;4.86;57.54;99698.95;223829;182;137152;-79
2023/04/03 09:46:22;;;;;;;10.90;6.30;;;;;;;4.84;57.74;99702.85;223786;181;147239;-78
2023/04/03 09:51:29;;;;;;;4.20;2.60;;;;;;;4.82;56.84;99712.39;223738;182;138429;-78
2023/04/03 09:56:34;;;;;;;4.40;1.80;;;;;;;4.71;56.79;99714.28;223850;183;136586;-78
2023/04/03 10:01:41;;;;;;;4.20;2.40;;;;;;;4.70;57.22;99719.23;223807;182;147847;-81
2023/04/03 10:06:46;;;;;;;4.10;2.30;;;;;;;4.79;57.40;99722.67;223798;183;138421;-78
2023/04/03 10:12:19;;;;;;;3.70;2.10;;;;;;;4.92;57.04;99725.33;223765;182;136813;-78
2023/04/03 10:17:23;;;;;;;4.00;2.10;;;;;;;5.00;57.10;99723.69;221239;182;147505;-80
2023/04/03 10:22:55;;;;;;;3.40;1.80;;;;;;;5.02;56.06;99723.80;223769;182;138587;-80
2023/04/03 10:28:00;;;;;;;5.70;2.00;;;;;;;4.95;56.14;99726.77;223775;182;136941;-80
2023/04/03 10:33:18;;;;;;;6.00;2.20;;;;;;;4.91;56.63;99727.45;223652;183;148066;-80
2023/04/03 10:38:30;;;;;;;4.90;2.10;;;;;;;5.00;57.04;99728.08;223811;182;139001;-80
2023/04/03 10:43:50;;;;;;;12.00;6.50;;;;;;;5.08;56.70;99735.95;223902;182;137721;-80
2023/04/03 10:49:05;;;;;;;5.50;2.60;;;;;;;5.16;55.97;99730.44;223862;182;147483;-80
2023/04/03 10:54:15;;;;;;;6.60;2.30;;;;;;;5.18;55.86;99731.27;223850;182;138702;-79
2023/04/03 10:59:47;;;;;;;3.80;2.20;;;;;;;5.19;55.38;99732.45;223859;182;137279;-78
2023/04/03 11:04:57;;;;;;;7.00;2.20;;;;;;;5.19;55.20;99736.13;223834;181;147121;-79
2023/04/03 11:10:16;;;;;;;4.30;2.30;;;;;;;5.25;55.44;99734.21;223284;182;140438;-81
2023/04/03 11:15:22;;;;;;;5.50;2.20;;;;;;;5.44;55.14;99729.63;223793;182;136180;-81
2023/04/03 11:20:33;;;;;;;4.20;2.20;;;;;;;5.80;55.20;99728.52;223593;182;147731;-66
2023/04/03 11:25:38;;;;;;;4.10;2.30;;;;;;;6.06;54.08;99723.83;223794;182;139173;-66
2023/04/03 11:31:26;;;;;;;3.90;2.50;;;;;;;6.08;53.58;99722.00;223817;181;136808;-66
2023/04/03 11:36:32;;;;;;;5.60;2.70;;;;;;;6.20;53.41;99719.69;223771;181;147257;-66
2023/04/03 11:41:37;;;;;;;4.80;2.10;;;;;;;6.32;53.14;99721.58;223887;182;139217;-68
2023/04/03 11:46:49;;;;;;;5.60;2.60;;;;;;;6.49;52.85;99718.16;223817;182;136772;-66
2023/04/03 11:52:12;;;;;;;5.30;2.40;;;;;;;6.57;51.93;99717.72;223826;181;147195;-64
2023/04/03 11:58:20;;;;;;;5.30;2.20;;;;;;;6.65;51.11;99711.44;223886;181;138840;-64
2023/04/03 12:03:49;;;;;;;3.30;1.80;;;;;;;6.70;50.13;99712.85;223422;184;137204;-66
2023/04/03 12:09:01;;;;;;;3.50;1.80;;;;;;;6.80;49.20;99709.33;223762;182;147258;-64
2023/04/03 12:14:16;;;;;;;5.90;1.80;;;;;;;7.14;49.03;99709.48;223712;181;140412;-66
2023/04/03 12:19:47;;;;;;;4.30;1.70;;;;;;;7.56;47.44;99704.86;223886;182;136686;-65
2023/04/03 12:25:39;;;;;;;5.70;2.20;;;;;;;7.70;47.08;99702.74;223893;182;149203;-65
2023/04/03 12:30:51;;;;;;;9.60;2.10;;;;;;;7.69;45.96;99710.17;223638;182;139968;-65
2023/04/03 12:36:33;;;;;;;3.40;1.90;;;;;;;7.70;46.24;99701.67;223774;181;137583;-64
2023/04/03 12:49:46;;;;;;;4.70;2.20;;;;;;;7.93;45.45;99702.88;223270;187;136126;-66
2023/04/03 12:54:57;;;;;;;4.20;1.80;;;;;;;7.72;45.29;99703.20;223217;187;145441;-65
2023/04/03 13:00:35;;;;;;;3.80;2.10;;;;;;;7.54;45.49;99707.77;223320;187;139531;-64
2023/04/03 13:05:50;;;;;;;4.60;2.10;;;;;;;7.43;45.21;99714.23;223349;186;135891;-63
2023/04/03 13:11:24;;;;;;;3.60;1.90;;;;;;;7.30;45.77;99714.17;223327;186;143543;-63
2023/04/03 13:16:33;;;;;;;4.70;2.10;;;;;;;7.39;45.66;99714.02;223373;186;139824;-62
2023/04/03 13:21:37;;;;;;;2.90;1.80;;;;;;;7.44;45.48;99709.60;223691;184;137006;-64
2023/04/03 13:26:47;;;;;;;58.40;33.20;;;;;;;7.40;45.01;99702.85;223634;184;143291;-64
2023/04/03 13:32:44;;;;;;;8.70;2.90;;;;;;;7.40;44.17;99699.34;223657;184;139086;-65
2023/04/03 13:38:00;;;;;;;7.20;2.10;;;;;;;7.39;43.69;99697.25;223390;186;136011;-66
2023/04/03 13:43:18;;;;;;;3.50;2.00;;;;;;;7.41;44.28;99693.98;223704;183;145929;-64
2023/04/03 13:48:24;;;;;;;3.20;1.70;;;;;;;7.43;44.35;99694.80;223072;185;141223;-64
2023/04/03 13:53:30;;;;;;;4.40;1.90;;;;;;;7.47;44.09;99700.63;223568;185;136711;-64
2023/04/03 13:58:35;;;;;;;2.70;1.60;;;;;;;7.44;43.97;99700.07;223580;185;145808;-63
2023/04/03 14:03:53;;;;;;;5.10;1.90;;;;;;;7.27;43.51;99694.00;223592;184;139135;-65
2023/04/03 14:08:56;;;;;;;6.20;2.50;;;;;;;7.20;44.23;99699.74;223571;183;140061;-63
2023/04/03 14:14:05;;;;;;;4.50;2.40;;;;;;;7.20;45.10;99696.90;223827;184;145023;-64
2023/04/03 14:19:18;;;;;;;6.10;2.30;;;;;;;7.28;45.33;99695.87;223694;184;138878;-63
2023/04/03 14:24:22;;;;;;;3.70;2.10;;;;;;;7.27;44.90;99695.76;223691;183;136391;-63
2023/04/03 14:29:25;;;;;;;5.10;2.30;;;;;;;7.25;44.46;99692.85;223684;183;146330;-63
2023/04/03 14:34:28;;;;;;;3.50;2.00;;;;;;;7.19;45.04;99692.51;223906;181;138237;-64
2023/04/03 14:39:32;;;;;;;5.90;2.30;;;;;;;7.20;45.20;99686.14;223813;181;139906;-63
2023/04/03 14:44:35;;;;;;;5.10;2.00;;;;;;;7.20;45.10;99685.61;223876;182;145224;-64
2023/04/03 14:49:39;;;;;;;7.20;3.00;;;;;;;7.25;44.67;99681.38;223849;181;138337;-62
2023/04/03 14:54:42;;;;;;;4.60;2.10;;;;;;;7.28;44.48;99682.33;223694;182;136504;-65
2023/04/03 14:59:45;;;;;;;5.10;2.20;;;;;;;7.27;44.02;99680.94;223837;181;145648;-64
2023/04/03 15:04:49;;;;;;;4.40;2.30;;;;;;;7.29;43.52;99684.90;223747;182;138532;-64
2023/04/03 15:09:58;;;;;;;2.90;1.80;;;;;;;7.27;43.39;99679.35;223715;181;137746;-64
2023/04/03 15:15:01;;;;;;;5.20;1.90;;;;;;;7.27;43.29;99683.06;223681;181;145325;-64
2023/04/03 15:20:17;;;;;;;4.90;2.40;;;;;;;7.17;42.82;99684.50;223742;181;138974;-63
2023/04/03 15:25:20;;;;;;;3.90;2.00;;;;;;;7.09;42.70;99683.19;223883;182;137525;-65
2023/04/03 15:30:24;;;;;;;4.70;1.90;;;;;;;7.07;42.79;99679.92;223750;182;146291;-65
2023/04/03 15:35:27;;;;;;;2.70;1.80;;;;;;;7.07;42.83;99679.05;223822;181;139158;-64
2023/04/03 15:40:30;;;;;;;595.80;394.30;;;;;;;7.00;42.81;99678.27;223794;182;136958;-64
2023/04/03 15:45:36;;;;;;;19.80;11.90;;;;;;;7.00;43.41;99678.98;223740;183;146622;-64
2023/04/03 15:50:41;;;;;;;10.10;4.10;;;;;;;6.96;42.39;99680.33;223702;181;138376;-63
2023/04/03 15:55:44;;;;;;;4.80;2.10;;;;;;;6.97;42.21;99684.70;223871;182;137719;-63
2023/04/03 16:00:47;;;;;;;5.20;2.50;;;;;;;7.01;41.90;99686.33;223814;182;145282;-63
2023/04/03 16:05:51;;;;;;;4.80;2.50;;;;;;;7.02;42.02;99680.66;223824;181;138349;-63
2023/04/03 16:10:54;;;;;;;3.10;2.10;;;;;;;6.96;41.84;99684.75;223823;182;136555;-63
2023/04/03 16:15:58;;;;;;;6.80;3.10;;;;;;;7.00;41.75;99681.97;223788;182;145923;-65
2023/04/03 16:21:01;;;;;;;5.80;2.50;;;;;;;7.02;42.05;99676.91;223704;181;140178;-65
2023/04/03 16:26:05;;;;;;;4.40;1.90;;;;;;;6.99;41.78;99678.63;223884;182;136259;-65
2023/04/03 16:31:09;;;;;;;5.10;2.10;;;;;;;6.82;41.07;99684.55;223859;181;145175;-64
2023/04/03 16:36:12;;;;;;;5.10;2.50;;;;;;;6.65;41.64;99683.75;223824;181;140030;-64
2023/04/03 16:42:55;;;;;;;6.10;2.70;;;;;;;6.54;42.27;99683.79;219876;193;666384;-65
2023/04/03 16:47:58;;;;;;;6.70;2.60;;;;;;;6.45;42.10;99687.28;222890;186;135945;-64
2023/04/03 16:53:02;;;;;;;5.60;2.60;;;;;;;6.35;42.42;99692.73;223787;183;143317;-66
2023/04/03 16:58:06;;;;;;;4.90;2.70;;;;;;;6.26;42.17;99693.39;223812;183;138879;-65
2023/04/03 17:03:09;;;;;;;6.10;3.20;;;;;;;6.18;42.61;99702.80;223884;181;136744;-64
2023/04/03 17:08:13;;;;;;;6.80;3.20;;;;;;;6.13;42.31;99703.17;223853;182;143335;-65
2023/04/03 17:13:17;;;;;;;11.70;5.80;;;;;;;6.03;42.91;99706.84;223964;181;138765;-64
2023/04/03 17:18:20;;;;;;;8.90;3.30;;;;;;;5.92;43.70;99705.77;223860;180;137790;-67
2023/04/03 17:23:28;;;;;;;6.80;3.60;;;;;;;5.84;43.62;99711.65;223860;180;145707;-65
2023/04/03 17:28:31;;;;;;;9.50;4.10;;;;;;;5.76;44.21;99715.95;223807;181;140058;-64
2023/04/03 17:33:37;;;;;;;7.70;3.70;;;;;;;5.66;44.37;99723.48;223769;182;136950;-62
2023/04/03 17:38:40;;;;;;;10.10;4.90;;;;;;;5.58;44.65;99728.14;223728;181;145319;-68
2023/04/03 17:43:43;;;;;;;8.40;4.70;;;;;;;5.48;44.99;99725.79;223769;181;138215;-66
2023/04/03 17:48:46;;;;;;;9.10;4.40;;;;;;;5.41;45.45;99730.92;223711;182;136883;-66
2023/04/03 17:53:49;;;;;;;11.20;4.50;;;;;;;5.33;45.98;99731.69;223745;182;144963;-66
2023/04/03 18:05:16;;;;;;;14.90;6.60;;;;;;;5.39;49.26;99748.06;223719;182;136914;-63
2023/04/03 18:17:33;;;;;;;13.30;6.60;;;;;;;5.24;46.63;99759.05;223712;184;138723;-64
2023/04/03 18:24:09;;;;;;;;;;;;;;;;;;;;;
2023/04/03 18:35:47;;;;;;;355.50;239.00;;;;;;;5.02;48.21;99763.89;223718;183;140353;-63
2023/04/03 18:41:43;;;;;;;24.90;13.70;;;;;;;5.18;49.71;99763.61;223694;182;137186;-65
2023/04/03 18:47:50;;;;;;;;;;;;;;;;;;;;;
2023/04/03 19:25:13;;;;;;;14.10;6.90;;;;;;;4.67;49.21;99761.67;223623;186;145265;-62
2023/04/03 19:31:25;;;;;;;12.00;5.90;;;;;;;4.66;49.33;99762.41;224079;215;138642;-63
2023/04/03 19:37:26;;;;;;;13.40;5.50;;;;;;;4.68;49.44;99761.27;223773;184;136390;-63
2023/04/03 19:44:00;;;;;;;14.90;6.10;;;;;;;4.70;49.54;99756.84;223430;188;145148;-65
2023/04/03 20:03:34;;;;;;;21.70;10.80;;;;;;;4.90;50.43;99760.17;219849;193;666566;-65
2023/04/03 20:08:38;;;;;;;16.20;7.20;;;;;;;4.89;49.86;99759.86;223181;187;136533;-65
2023/04/03 20:13:42;;;;;;;14.10;6.70;;;;;;;4.84;49.92;99763.17;223431;186;143155;-65
2023/04/03 20:19:12;;;;;;;12.20;6.50;;;;;;;4.80;50.14;99762.58;223202;187;138220;-62
2023/04/03 20:50:35;;;;;;;14.30;6.90;;;;;;;4.76;49.48;99768.46;223109;188;143498;-64
2023/04/03 21:03:21;;;;;;;13.10;6.80;;;;;;;4.77;49.84;99768.64;223405;187;137331;-65
2023/04/03 21:15:48;;;;;;;16.00;7.20;;;;;;;4.72;50.12;99776.31;223487;186;138486;-65
2023/04/03 21:34:07;;;;;;;13.70;6.90;;;;;;;4.67;51.35;99781.71;222944;190;138538;-65
2023/04/03 21:43:21;;;;;;;15.10;6.50;;;;;;;4.70;51.45;99779.86;220247;193;666467;-64
2023/04/03 22:07:48;;;;;;;12.50;6.00;;;;;;;4.68;50.38;99766.39;223285;186;136901;-66
2023/04/03 22:12:51;;;;;;;13.60;6.20;;;;;;;4.65;50.28;99756.10;223415;185;144896;-67
2023/04/03 22:24:45;;;;;;;11.60;5.80;;;;;;;4.64;50.54;99735.91;223272;187;136231;-63
2023/04/03 22:31:17;;;;;;;14.20;6.10;;;;;;;4.64;50.87;99725.20;223007;188;143483;-63
2023/04/03 22:45:53;;;;;;;13.40;6.70;;;;;;;4.74;50.77;99704.71;220469;190;682582;-64
2023/04/03 23:18:10;;;;;;;13.00;5.60;;;;;;;4.45;51.79;99664.39;223659;188;143651;-64
2023/04/03 23:31:01;;;;;;;11.40;5.50;;;;;;;4.30;51.58;99647.58;223259;189;135452;-64
2023/04/03 23:43:31;;;;;;;9.00;4.40;;;;;;;4.19;52.01;99649.45;223010;188;136747;-66
2023/04/03 23:48:34;;;;;;;9.20;4.40;;;;;;;4.13;51.89;99644.34;223737;184;144375;-65
